KMRC

Maury County Airport

Columbia/Mount Pleasant, Tennessee, USA
METAR KMRC 182215Z AUTO 25008KT 10SM CLR 32/21 A3006 RMK A01
Observed Flight Rules
Jun-18 @ 22:15 UTC (19 minutes ago) Visual Flight Rules
Wind Visibility Clouds
250° at 8 knots 10 miles
  • Clear skies
Temperatures Readings
Current 32°C / 90°F
Dewpoint 21°C / 70°F
Humidity 52%
Altimeter 30.06" Hg
Pressure 1018 hPa
Elevation 208
METAR KMRC 182215Z AUTO 25008KT 10SM CLR 32/21 A3006 RMK A01
Observed Flight Rules
Jun-18 @ 22:15 UTC
(19 minutes ago)
VFR
Wind Visibility
250° at 8 knots 10 miles
Clouds
  • Clear skies
Temperature Dewpoint
32°C / 90°F 21°C / 70°F
Humidity Altimeter Pressure
52% 30.06" Hg 1018 hPa